Abingdon, Iowa
Current Conditions -  °F | °C
As of 12:15 PM on Friday 24 Oct 2014 (Local Time) from KFFL Reporting Station
Broken Clouds Broken Clouds  
Wind Chill: 16°   Ceiling: 800
Heat Index: 16°   Visibility: NA
Dew Point: 14°   Wind: 13mph
Humidity: 88%   Direction: 170°S
Pressure: 30.02"   Gusts: NA
Location:  40.9883°N, 92.1215°W
Report Text: KFFL 241715Z AUTO 17011KT BKN008 16/14 A3002 RMK AO2
Loading
Personal Weather Stations






























Interactive Weather Map
Tropical Storm Tracking
New forecast layout! Learn more

10-Day Weather Forecast

Advertisements
Track Severe Weather on mobile